MRIT2: Lake Meredith

                                SHEF ID:       MRIT2     Lake Meredith
STATION TYPE: RESERVOIR
Flood Pool: Bottom = 2941.30, Top = 2965.00

PRECIP ELEVATION STORAGE INFLOW RELEASE WIND-DIRWIND-SPEED
in ft ac-ft cfs cfs deg mph
Ccp-Rev Ccp-Rev Ccp-Rev Rev-Regi Rev-Regi Ccp-Rev Ccp-Rev
(America/Chicago)
10/23 00:00 ---- 2891.58 261816 0 0 223.00 5.00
10/23 01:00 ---- 2891.57 261737 0 0 238.00 5.00
10/23 02:00 ---- 2891.58 261816 0 0 232.00 7.00
10/23 03:00 ---- 2891.57 261737 0 0 222.00 6.00
10/23 04:00 ---- 2891.56 261659 0 0 201.00 6.00
10/23 05:00 ---- 2891.57 261737 0 0 222.00 5.00
10/23 06:00 ---- 2891.56 261659 127 0 187.00 5.00
10/23 07:00 ---- 2891.56 261659 127 0 195.00 5.00
10/23 08:00 ---- 2891.57 261737 127 0 ---- ----
10/23 09:00 ---- 2891.57 261737 127 0 ---- ----
10/23 10:00 ---- 2891.56 261659 166 0 ---- ----
10/23 11:00 ---- 2891.57 261737 39 0 ---- ----
10/23 12:00 ---- 2891.58 261816 78 0 ---- ----
10/23 13:00 ---- 2891.58 261816 136 0 ---- ----
10/23 14:00 ---- 2891.59 261894 195 0 ---- ----
10/23 15:00 ---- 2891.60 261973 156 0 ---- ----
10/23 16:00 ---- 2891.61 262051 214 0 ---- ----
10/23 17:00 ---- 2891.58 261816 175 0 ---- ----
10/23 18:00 ---- 2891.59 261894 117 0 ---- ----
10/23 19:00 ---- 2891.56 261659 58 0 ---- ----
10/23 20:00 ---- 2891.59 261894 58 0 ---- ----
10/23 21:00 ---- 2891.59 261894 0 0 ---- ----
10/23 22:00 ---- 2891.59 261894 0 0 ---- ----
10/23 23:00 ---- 2891.59 261894 ---- ---- ---- ----
Data processed at Tue 24Oct2023 04:47 GMT

Parsing this webpage?

Checkout our new Data API! CWMSDataAPI (CDA)

All information presented herein is the property of the government of the United States of America and may be revised or deleted at any time without prior notice. Dissemination of this information without the expressed written consent of the Public Affairs Office, Tulsa District U.S. Army Corps of Engineers is strictly prohibited. These data are gathered electronically and, as presented, have NOT undergone any form of quality control. These data are NOT guaranteed to be valid or correct.